createdAt,value
2022-11-10T00:01:38.370Z,22.64
2022-11-10T00:04:28.043Z,22.69
2022-11-10T00:07:17.012Z,22.61
2022-11-10T00:10:08.002Z,22.44
2022-11-10T00:12:57.092Z,22.46
2022-11-10T00:16:24.281Z,22.28
2022-11-10T00:19:13.164Z,22.37
2022-11-10T00:22:02.885Z,22.81
2022-11-10T00:24:51.603Z,22.94
2022-11-10T00:27:40.815Z,22.87
2022-11-10T00:30:30.397Z,22.94
2022-11-10T00:33:19.806Z,23.07
2022-11-10T00:36:09.293Z,23.28
2022-11-10T00:38:57.963Z,23.42
2022-11-10T00:41:46.953Z,23.52
2022-11-10T00:44:36.403Z,23.80
2022-11-10T00:47:25.165Z,24.82
2022-11-10T00:50:14.199Z,25.40
2022-11-10T00:53:03.152Z,26.02
2022-11-10T00:55:52.414Z,25.19
2022-11-10T00:58:41.774Z,24.74
2022-11-10T01:01:31.382Z,24.68
2022-11-10T01:04:20.958Z,23.97
2022-11-10T01:07:09.592Z,23.71
2022-11-10T01:09:58.126Z,23.95
2022-11-10T01:12:47.415Z,23.91
2022-11-10T01:15:37.019Z,23.40
2022-11-10T01:18:26.222Z,23.92
2022-11-10T01:21:15.227Z,24.04
2022-11-10T01:24:04.218Z,24.91
2022-11-10T01:26:53.568Z,25.39
2022-11-10T01:29:42.751Z,25.57
2022-11-10T01:32:33.098Z,25.76
2022-11-10T01:35:21.979Z,25.50
2022-11-10T01:38:10.893Z,25.40
2022-11-10T01:41:01.055Z,25.29
2022-11-10T01:43:49.869Z,24.75
2022-11-10T01:46:39.116Z,25.34
2022-11-10T01:49:29.396Z,25.95
2022-11-10T01:52:18.213Z,26.57
2022-11-10T01:55:07.525Z,26.10
2022-11-10T01:57:56.661Z,27.12
2022-11-10T02:00:46.176Z,26.41
2022-11-10T02:03:39.550Z,26.04
2022-11-10T02:06:32.586Z,25.70
2022-11-10T02:09:21.673Z,25.76
2022-11-10T02:12:10.584Z,26.12
2022-11-10T02:15:00.014Z,25.34
2022-11-10T02:17:50.456Z,25.33
2022-11-10T02:20:39.289Z,25.31
2022-11-10T02:23:36.990Z,25.16
2022-11-10T02:26:28.460Z,25.58
2022-11-10T02:29:17.258Z,25.01
2022-11-10T02:32:06.387Z,24.66
2022-11-10T02:34:55.179Z,24.67
2022-11-10T02:37:44.050Z,24.95
2022-11-10T02:40:32.660Z,24.47
2022-11-10T02:43:22.509Z,24.19
2022-11-10T02:46:12.418Z,24.40
2022-11-10T02:49:01.440Z,24.24
2022-11-10T02:51:50.545Z,24.39
2022-11-10T02:54:39.177Z,24.54
2022-11-10T02:57:27.983Z,24.42
2022-11-10T03:00:16.944Z,24.22
2022-11-10T03:03:06.702Z,24.64
2022-11-10T03:05:55.445Z,24.65
2022-11-10T03:08:43.995Z,24.73
2022-11-10T03:11:32.942Z,24.55
2022-11-10T03:14:21.633Z,24.60
2022-11-10T03:17:11.036Z,24.63
2022-11-10T03:19:59.989Z,25.09
2022-11-10T03:22:48.694Z,24.54
2022-11-10T03:25:38.854Z,24.31
2022-11-10T03:28:27.816Z,24.04
2022-11-10T03:31:16.840Z,24.31
2022-11-10T03:34:06.279Z,23.74
2022-11-10T03:36:55.385Z,23.95
2022-11-10T03:39:44.107Z,23.56
2022-11-10T03:42:33.385Z,23.87
2022-11-10T03:45:21.878Z,23.99
2022-11-10T03:48:10.995Z,23.87
2022-11-10T03:50:59.814Z,23.89
2022-11-10T03:53:48.366Z,23.47
2022-11-10T03:56:37.033Z,23.59
2022-11-10T03:59:26.328Z,23.74
2022-11-10T04:02:15.356Z,23.05
2022-11-10T04:05:22.492Z,23.20
2022-11-10T04:08:35.082Z,23.18
2022-11-10T04:11:42.679Z,23.38
2022-11-10T04:14:49.540Z,22.97
2022-11-10T04:17:39.391Z,22.68
2022-11-10T04:20:28.574Z,22.84
2022-11-10T04:23:30.680Z,22.94
2022-11-10T04:26:31.609Z,22.86
2022-11-10T04:29:21.715Z,22.77
2022-11-10T04:32:10.756Z,22.82
2022-11-10T04:34:59.870Z,22.71
2022-11-10T04:37:49.318Z,22.33
2022-11-10T04:40:38.120Z,22.43
2022-11-10T04:43:27.322Z,22.53
2022-11-10T04:46:29.152Z,22.40
2022-11-10T04:49:18.029Z,22.47
2022-11-10T04:52:07.071Z,22.32
2022-11-10T04:54:56.280Z,22.60
2022-11-10T04:57:45.628Z,22.44
2022-11-10T05:00:35.056Z,22.14
2022-11-10T05:03:23.948Z,22.22
2022-11-10T05:06:13.781Z,22.21
2022-11-10T05:09:02.812Z,22.60
2022-11-10T05:11:51.683Z,22.31
2022-11-10T05:14:41.145Z,22.04
2022-11-10T05:17:30.025Z,21.83
2022-11-10T05:20:24.517Z,21.87
2022-11-10T05:23:31.798Z,21.66
2022-11-10T05:26:21.261Z,21.73
2022-11-10T05:29:10.618Z,21.59
2022-11-10T05:31:59.647Z,21.66
2022-11-10T05:34:48.602Z,21.27
2022-11-10T05:37:37.479Z,21.50
2022-11-10T05:40:26.506Z,21.14
2022-11-10T05:43:15.809Z,21.33
2022-11-10T05:46:05.552Z,21.15
2022-11-10T05:48:54.454Z,21.13
2022-11-10T05:51:43.092Z,21.13
2022-11-10T05:54:31.669Z,21.06
2022-11-10T05:57:20.851Z,20.98
2022-11-10T06:00:11.270Z,20.79
2022-11-10T06:03:05.223Z,20.86
2022-11-10T06:05:54.838Z,20.62
2022-11-10T06:08:44.233Z,20.45
2022-11-10T06:11:33.051Z,20.64
2022-11-10T06:14:22.453Z,20.40
2022-11-10T06:17:11.261Z,20.49
2022-11-10T06:20:00.612Z,20.52
2022-11-10T06:23:11.775Z,20.28
2022-11-10T06:26:01.000Z,20.21
2022-11-10T06:28:50.147Z,19.77
2022-11-10T06:31:39.091Z,19.53
2022-11-10T06:34:28.273Z,19.68
2022-11-10T06:37:17.537Z,19.49
2022-11-10T06:40:07.495Z,19.51
2022-11-10T06:42:56.631Z,19.25
2022-11-10T06:45:45.842Z,19.07
2022-11-10T06:48:34.929Z,18.90
2022-11-10T06:51:24.293Z,18.84
2022-11-10T06:54:13.539Z,18.65
2022-11-10T06:57:02.935Z,18.36
2022-11-10T06:59:52.452Z,18.39
2022-11-10T07:02:41.741Z,18.37
2022-11-10T07:05:31.550Z,18.26
2022-11-10T07:08:20.525Z,18.09
2022-11-10T07:11:09.738Z,18.04
2022-11-10T07:13:59.162Z,17.97
2022-11-10T07:16:48.396Z,17.94
2022-11-10T07:19:37.500Z,17.76
2022-11-10T07:22:26.496Z,17.73
2022-11-10T07:25:15.713Z,17.68
2022-11-10T07:28:07.109Z,17.79
2022-11-10T07:30:57.194Z,17.57
2022-11-10T07:33:50.610Z,17.49
2022-11-10T07:36:43.298Z,17.57
2022-11-10T07:39:32.868Z,17.43
2022-11-10T07:42:21.832Z,17.44
2022-11-10T07:45:11.390Z,17.30
2022-11-10T07:48:04.197Z,17.26
2022-11-10T07:50:53.487Z,17.18
2022-11-10T07:53:42.978Z,17.28
2022-11-10T07:56:32.285Z,17.27
2022-11-10T07:59:20.930Z,17.11
2022-11-10T08:02:13.180Z,17.23
2022-11-10T08:05:02.024Z,17.17
2022-11-10T08:07:51.074Z,17.15
2022-11-10T08:10:40.775Z,17.22
2022-11-10T08:13:30.146Z,16.96
2022-11-10T08:16:20.225Z,16.87
2022-11-10T08:19:09.954Z,16.72
2022-11-10T08:21:58.905Z,16.61
2022-11-10T08:24:48.734Z,16.72
2022-11-10T08:27:37.771Z,16.61
2022-11-10T08:30:27.323Z,16.61
2022-11-10T08:33:18.818Z,16.54
2022-11-10T08:36:08.046Z,16.52
2022-11-10T08:38:56.938Z,16.48
2022-11-10T08:41:46.351Z,16.44
2022-11-10T08:44:35.198Z,16.23
2022-11-10T08:47:24.604Z,16.18
2022-11-10T08:50:13.759Z,16.17
2022-11-10T08:53:07.985Z,16.14
2022-11-10T08:56:01.224Z,16.23
2022-11-10T08:58:53.477Z,16.08
2022-11-10T09:01:42.581Z,16.09
2022-11-10T09:04:32.065Z,16.02
2022-11-10T09:07:20.914Z,16.16
2022-11-10T09:10:10.836Z,16.08
2022-11-10T09:13:03.578Z,15.84
2022-11-10T09:15:56.244Z,16.12
2022-11-10T09:18:45.144Z,16.02
2022-11-10T09:21:34.210Z,16.00
2022-11-10T09:24:25.922Z,15.88
2022-11-10T09:27:19.581Z,15.87
2022-11-10T09:30:13.104Z,15.92
2022-11-10T09:33:06.290Z,15.74
2022-11-10T09:36:04.217Z,15.80
2022-11-10T09:38:53.757Z,15.88
2022-11-10T09:41:43.872Z,15.80
2022-11-10T09:44:54.044Z,15.74
2022-11-10T09:47:57.490Z,15.60
2022-11-10T09:51:26.317Z,15.53
2022-11-10T09:54:27.697Z,15.54
2022-11-10T09:57:19.569Z,15.50
2022-11-10T10:00:09.394Z,15.43
2022-11-10T10:03:04.863Z,15.51
2022-11-10T10:06:03.842Z,15.44
2022-11-10T10:09:10.930Z,15.51
2022-11-10T10:12:26.129Z,15.56
2022-11-10T10:15:19.186Z,15.50
2022-11-10T10:18:31.328Z,15.38
2022-11-10T10:21:23.668Z,15.43
2022-11-10T10:24:21.870Z,15.53
2022-11-10T10:27:24.961Z,15.56
2022-11-10T10:30:19.298Z,15.38
2022-11-10T10:33:19.030Z,15.42
2022-11-10T10:36:11.955Z,15.41
2022-11-10T10:39:05.267Z,15.48
2022-11-10T10:41:53.916Z,15.47
2022-11-10T10:44:42.875Z,15.43
2022-11-10T10:47:40.507Z,15.45
2022-11-10T10:50:35.869Z,15.26
2022-11-10T10:53:26.541Z,15.25
2022-11-10T10:56:22.938Z,15.38
2022-11-10T10:59:21.420Z,15.33
2022-11-10T11:02:33.467Z,15.38
2022-11-10T11:05:22.580Z,15.24
2022-11-10T11:08:21.149Z,15.25
2022-11-10T11:11:13.242Z,15.36
2022-11-10T11:14:30.112Z,15.36
2022-11-10T11:17:24.405Z,15.34
2022-11-10T11:20:16.917Z,15.21
2022-11-10T11:23:09.136Z,15.20
2022-11-10T11:26:04.185Z,15.09
2022-11-10T11:29:02.650Z,15.20
2022-11-10T11:32:09.132Z,15.24
2022-11-10T11:35:15.682Z,15.26
2022-11-10T11:38:10.594Z,15.35
2022-11-10T11:41:17.659Z,15.40
2022-11-10T11:44:26.662Z,15.28
2022-11-10T11:47:37.191Z,15.41
2022-11-10T11:50:34.937Z,15.46
2022-11-10T11:53:36.180Z,15.43
2022-11-10T11:56:37.822Z,15.41
2022-11-10T11:59:50.789Z,15.34
2022-11-10T12:02:52.922Z,15.41
2022-11-10T12:05:50.859Z,15.47
2022-11-10T12:08:42.303Z,15.38
2022-11-10T12:11:34.210Z,15.46
2022-11-10T12:14:42.993Z,15.36
2022-11-10T12:18:24.719Z,15.36
2022-11-10T12:21:27.366Z,15.41
2022-11-10T12:24:16.293Z,15.47
2022-11-10T12:27:26.287Z,15.34
2022-11-10T12:30:18.299Z,15.42
2022-11-10T12:33:20.141Z,15.38
2022-11-10T12:36:13.308Z,15.21
2022-11-10T12:39:21.881Z,15.38
2022-11-10T12:42:19.398Z,15.23
2022-11-10T12:45:17.455Z,15.33
2022-11-10T12:48:06.944Z,15.25
2022-11-10T12:51:11.531Z,15.30
2022-11-10T12:54:00.141Z,15.24
2022-11-10T12:56:54.529Z,15.27
2022-11-10T12:59:52.336Z,15.19
2022-11-10T13:02:46.732Z,15.33
2022-11-10T13:05:44.095Z,15.20
2022-11-10T13:08:44.940Z,15.32
2022-11-10T13:11:38.229Z,15.38
2022-11-10T13:14:33.707Z,15.27
2022-11-10T13:17:28.957Z,15.21
2022-11-10T13:20:42.300Z,15.33
2022-11-10T13:23:34.743Z,15.37
2022-11-10T13:26:41.817Z,15.37
2022-11-10T13:29:38.247Z,15.22
2022-11-10T13:32:34.838Z,15.12
2022-11-10T13:35:33.217Z,15.04
2022-11-10T13:38:45.919Z,14.88
2022-11-10T13:41:34.983Z,14.62
2022-11-10T13:44:31.060Z,14.52
2022-11-10T13:47:47.384Z,14.54
2022-11-10T13:50:55.619Z,14.49
2022-11-10T13:54:34.509Z,14.44
2022-11-10T13:57:38.848Z,14.45
2022-11-10T14:00:34.033Z,14.30
2022-11-10T14:03:47.594Z,14.30
2022-11-10T14:06:39.387Z,14.27
2022-11-10T14:09:35.038Z,14.23
2022-11-10T14:12:32.922Z,14.22
2022-11-10T14:15:51.275Z,14.30
2022-11-10T14:18:56.373Z,14.13
2022-11-10T14:21:55.401Z,14.07
2022-11-10T14:25:18.288Z,14.09
2022-11-10T14:28:26.745Z,14.17
2022-11-10T14:31:27.923Z,14.05
2022-11-10T14:34:20.695Z,13.94
2022-11-10T14:37:15.032Z,13.97
2022-11-10T14:40:05.153Z,13.87
2022-11-10T14:42:54.286Z,13.85
2022-11-10T14:45:54.344Z,13.81
2022-11-10T14:48:43.093Z,13.79
2022-11-10T14:51:32.286Z,13.71
2022-11-10T14:54:28.102Z,13.53
2022-11-10T14:57:20.437Z,13.57
2022-11-10T15:00:27.259Z,13.61
2022-11-10T15:03:23.942Z,13.32
2022-11-10T15:06:14.827Z,13.38
2022-11-10T15:09:16.121Z,13.29
2022-11-10T15:12:05.125Z,13.27
2022-11-10T15:15:02.185Z,13.08
2022-11-10T15:17:53.094Z,13.23
2022-11-10T15:20:43.234Z,13.11
2022-11-10T15:23:39.016Z,13.13
2022-11-10T15:26:36.667Z,13.00
2022-11-10T15:29:26.690Z,12.90
2022-11-10T15:32:22.535Z,13.05
2022-11-10T15:35:32.431Z,13.09
2022-11-10T15:38:24.396Z,13.12
2022-11-10T15:41:14.592Z,13.14
2022-11-10T15:44:25.988Z,13.15
2022-11-10T15:47:16.508Z,13.20
2022-11-10T15:50:05.748Z,13.05
2022-11-10T15:52:55.389Z,13.14
2022-11-10T15:55:45.950Z,13.20
2022-11-10T15:58:35.319Z,13.20
2022-11-10T16:01:23.955Z,13.27
2022-11-10T16:04:14.178Z,13.29
2022-11-10T16:07:03.430Z,13.33
2022-11-10T16:09:52.861Z,13.44
2022-11-10T16:12:42.577Z,13.39
2022-11-10T16:15:31.954Z,13.36
2022-11-10T16:18:23.681Z,13.35
2022-11-10T16:21:17.041Z,13.25
2022-11-10T16:24:06.573Z,13.30
2022-11-10T16:26:55.767Z,13.36
2022-11-10T16:29:44.797Z,13.48
2022-11-10T16:32:34.277Z,13.47
2022-11-10T16:35:24.002Z,13.43
2022-11-10T16:38:27.102Z,13.33
2022-11-10T16:41:16.477Z,13.33
2022-11-10T16:44:05.351Z,13.33
2022-11-10T16:46:58.295Z,13.39
2022-11-10T16:49:48.263Z,13.30
2022-11-10T16:52:37.818Z,13.29
2022-11-10T16:55:27.532Z,13.22
2022-11-10T16:58:17.240Z,13.22
2022-11-10T17:01:06.886Z,13.26
2022-11-10T17:03:58.863Z,13.25
2022-11-10T17:06:48.011Z,13.26
2022-11-10T17:09:36.882Z,13.36
2022-11-10T17:12:26.330Z,13.25
2022-11-10T17:15:19.463Z,13.19
2022-11-10T17:18:09.015Z,13.08
2022-11-10T17:20:58.035Z,12.99
2022-11-10T17:23:47.145Z,13.14
2022-11-10T17:26:36.587Z,12.91
2022-11-10T17:29:26.034Z,13.12
2022-11-10T17:32:15.227Z,13.10
2022-11-10T17:35:03.842Z,13.03
2022-11-10T17:37:56.705Z,13.05
2022-11-10T17:40:45.882Z,13.01
2022-11-10T17:43:34.607Z,13.09
2022-11-10T17:46:23.438Z,12.98
2022-11-10T17:49:12.152Z,13.07
2022-11-10T17:52:01.024Z,13.06
2022-11-10T17:54:49.654Z,13.12
2022-11-10T17:57:38.637Z,13.09
2022-11-10T18:00:27.557Z,13.08
2022-11-10T18:03:18.603Z,13.08
2022-11-10T18:06:10.166Z,13.01
2022-11-10T18:08:59.889Z,13.13
2022-11-10T18:11:48.739Z,13.09
2022-11-10T18:14:37.660Z,13.13
2022-11-10T18:17:27.261Z,13.18
2022-11-10T18:20:16.623Z,13.25
2022-11-10T18:23:05.606Z,13.17
2022-11-10T18:25:54.470Z,13.24
2022-11-10T18:28:44.750Z,13.22
2022-11-10T18:31:33.393Z,13.21
2022-11-10T18:34:22.348Z,13.23
2022-11-10T18:37:11.484Z,13.13
2022-11-10T18:40:00.622Z,13.19
2022-11-10T18:42:49.509Z,13.23
2022-11-10T18:45:38.673Z,13.22
2022-11-10T18:48:31.120Z,13.25
2022-11-10T18:51:23.601Z,13.28
2022-11-10T18:54:12.339Z,13.21
2022-11-10T18:57:01.407Z,13.26
2022-11-10T18:59:50.714Z,13.20
2022-11-10T19:02:39.647Z,13.21
2022-11-10T19:05:28.545Z,13.29
2022-11-10T19:08:17.536Z,13.42
2022-11-10T19:11:10.811Z,13.26
2022-11-10T19:14:03.423Z,13.30
2022-11-10T19:16:52.592Z,13.22
2022-11-10T19:19:41.832Z,13.27
2022-11-10T19:22:31.023Z,13.40
2022-11-10T19:25:20.119Z,13.25
2022-11-10T19:28:12.836Z,13.32
2022-11-10T19:31:16.012Z,13.30
2022-11-10T19:34:04.788Z,13.27
2022-11-10T19:36:55.429Z,13.28
2022-11-10T19:39:44.989Z,13.15
2022-11-10T19:42:34.918Z,13.25
2022-11-10T19:45:23.698Z,13.22
2022-11-10T19:48:12.679Z,13.35
2022-11-10T19:51:03.328Z,13.28
2022-11-10T19:54:04.124Z,13.25
2022-11-10T19:56:53.997Z,13.32
2022-11-10T19:59:42.701Z,13.19
2022-11-10T20:02:33.840Z,13.16
2022-11-10T20:05:23.694Z,13.23
2022-11-10T20:08:14.549Z,13.28
2022-11-10T20:11:05.235Z,13.32
2022-11-10T20:13:56.479Z,13.28
2022-11-10T20:16:45.333Z,13.41
2022-11-10T20:19:41.056Z,13.39
2022-11-10T20:22:32.343Z,13.31
2022-11-10T20:25:21.559Z,13.33
2022-11-10T20:28:10.753Z,13.44
2022-11-10T20:31:01.073Z,13.41
2022-11-10T20:33:51.124Z,13.46
2022-11-10T20:36:40.498Z,13.52
2022-11-10T20:39:29.306Z,13.45
2022-11-10T20:42:19.040Z,13.47
2022-11-10T20:45:09.145Z,13.49
2022-11-10T20:48:00.382Z,13.53
2022-11-10T20:50:50.845Z,13.55
2022-11-10T20:53:40.569Z,13.53
2022-11-10T20:56:30.385Z,13.65
2022-11-10T20:59:19.664Z,13.76
2022-11-10T21:02:08.628Z,13.84
2022-11-10T21:04:57.552Z,14.02
2022-11-10T21:07:46.464Z,14.05
2022-11-10T21:10:35.504Z,14.27
2022-11-10T21:13:26.020Z,14.43
2022-11-10T21:16:15.979Z,14.32
2022-11-10T21:19:05.112Z,14.59
2022-11-10T21:21:55.193Z,14.49
2022-11-10T21:24:44.722Z,14.39
2022-11-10T21:27:34.007Z,14.54
2022-11-10T21:30:26.044Z,14.48
2022-11-10T21:33:15.176Z,14.35
2022-11-10T21:36:13.608Z,14.43
2022-11-10T21:39:02.611Z,14.50
2022-11-10T21:41:51.767Z,14.45
2022-11-10T21:44:41.773Z,14.46
2022-11-10T21:47:34.114Z,14.41
2022-11-10T21:50:23.554Z,14.56
2022-11-10T21:53:12.532Z,14.52
2022-11-10T21:56:02.794Z,14.47
2022-11-10T21:58:51.835Z,14.48
2022-11-10T22:01:40.736Z,14.53
2022-11-10T22:04:29.700Z,14.58
2022-11-10T22:07:24.604Z,14.70
2022-11-10T22:10:31.924Z,14.66
2022-11-10T22:13:40.366Z,14.57
2022-11-10T22:16:50.209Z,14.65
2022-11-10T22:19:39.697Z,14.75
2022-11-10T22:22:28.436Z,14.66
2022-11-10T22:25:17.918Z,14.75
2022-11-10T22:28:07.140Z,14.65
2022-11-10T22:30:56.661Z,14.67
2022-11-10T22:33:45.892Z,14.61
2022-11-10T22:36:35.292Z,14.60
2022-11-10T22:39:24.326Z,14.55
2022-11-10T22:42:34.104Z,14.51
2022-11-10T22:45:23.764Z,14.54
2022-11-10T22:48:27.510Z,14.65
2022-11-10T22:51:16.106Z,14.60
2022-11-10T22:54:05.571Z,14.78
2022-11-10T22:56:54.619Z,14.82
2022-11-10T22:59:43.708Z,14.88
2022-11-10T23:02:34.049Z,14.87
2022-11-10T23:05:23.059Z,14.86
2022-11-10T23:08:12.024Z,14.87
2022-11-10T23:11:16.131Z,15.04
2022-11-10T23:14:05.379Z,15.58
2022-11-10T23:16:54.743Z,15.74
2022-11-10T23:19:43.526Z,16.04
2022-11-10T23:22:33.184Z,16.04
2022-11-10T23:25:22.019Z,16.04
2022-11-10T23:28:11.442Z,16.08
2022-11-10T23:31:13.049Z,16.17
2022-11-10T23:34:02.585Z,16.34
2022-11-10T23:36:51.723Z,16.32
2022-11-10T23:39:41.018Z,16.40
2022-11-10T23:42:32.953Z,16.40
2022-11-10T23:45:21.871Z,16.39
2022-11-10T23:48:11.225Z,16.34
2022-11-10T23:51:00.870Z,16.43
2022-11-10T23:53:50.014Z,16.42
2022-11-10T23:56:39.353Z,16.50
2022-11-10T23:59:28.181Z,16.47
